KGSB/GSB METAR and TAF weather

Enter ICAO airport designator
Station Type Date Time Source
KGSB METAR 2019/11/18 04:56 UTC NOAA

KGSB 180456Z AUTO 36008KT 10SM OVC012 08/05 A2988 RMK AO2 SLP122 T00790048 401040063 $


Station Type Date Time Source
KGSB Decoded METAR 2019/11/18 04:56 UTC NOAA

Seymour-Johnson Air Force Base, NC, United States (KGSB) 35-20N 077-58W
Nov 17, 2019 - 11:56 PM EST / 2019.11.18 0456 UTC
Wind: from the N (360 degrees) at 9 MPH (8 KT):0
Visibility: 10 mile(s):0
Sky conditions: overcast
Temperature: 46.2 F (7.9 C)
Dew Point: 40.6 F (4.8 C)
Relative Humidity: 80%
Pressure (altimeter): 29.88 in. Hg (1011 hPa)
ob: KGSB 180456Z AUTO 36008KT 10SM OVC012 08/05 A2988 RMK AO2 SLP122 T00790048 401040063
cycle: 5

Station Type Date Time Source
KGSB TAF 2019/11/17 21:18 UTC NOAA

TAF KGSB 172100Z 1721/1903 01015G20KT 9999 OVC021 QNH2989INS
TEMPO 1721/1723 01021G31KT OVC014 510009
BECMG 1722/1723 01012G18KT 9999 OVC020 QNH2988INS
BECMG 1803/1804 34009KT 9999 BKN015 OVC020 QNH2983INS
TEMPO 1804/1807 OVC009
BECMG 1806/1807 35006KT 9999 OVC007 QNH2980INS
BECMG 1815/1816 35006KT 9999 SCT010 BKN025 BKN050 QNH2978INS TX11/1821Z TN04/1811Z LAST NO
AMDS AFT 1721 NEXT 1805

Example: see airport list